Time;durP1;ratioP1;P1;durP2;ratioP2;P2;SDS_P1;SDS_P2;PMS_P1;PMS_P2;Temp;Humidity;BMP_temperature;BMP_pressure;BME280_temperature;BME280_humidity;BME280_pressure;Samples;Min_cycle;Max_cycle;Signal;HPM_P1;HPM_P2
2023/12/11 00:00:03;;;;;;;0.30;0.30;;;;;;;8.45;100.00;99846.72;5115426;28;20019;-49
2023/12/11 00:02:28;;;;;;;0.22;0.22;;;;;;;8.46;100.00;99840.81;5114698;28;20065;-48
2023/12/11 00:04:54;;;;;;;0.30;0.30;;;;;;;8.38;100.00;99835.47;5114206;28;20067;-48
2023/12/11 00:07:19;;;;;;;0.22;0.22;;;;;;;8.34;100.00;99831.06;5114736;28;20050;-48
2023/12/11 00:09:44;;;;;;;0.30;0.30;;;;;;;8.33;100.00;99819.09;5114740;28;20048;-47
2023/12/11 00:12:10;;;;;;;0.30;0.30;;;;;;;8.28;100.00;99820.69;5114045;28;20058;-49
2023/12/11 00:14:36;;;;;;;0.30;0.30;;;;;;;8.23;100.00;99821.44;5114863;28;20023;-46
2023/12/11 00:17:01;;;;;;;0.20;0.20;;;;;;;8.18;100.00;99823.03;5115102;28;20379;-49
2023/12/11 00:19:27;;;;;;;0.30;0.30;;;;;;;8.16;100.00;99834.09;5114141;28;20414;-49
2023/12/11 00:21:52;;;;;;;0.30;0.30;;;;;;;8.15;100.00;99830.66;5114630;28;20023;-50
2023/12/11 00:24:17;;;;;;;0.30;0.30;;;;;;;8.14;100.00;99834.06;5114419;28;20023;-46
2023/12/11 00:26:43;;;;;;;0.30;0.30;;;;;;;8.15;100.00;99824.69;5113987;28;20156;-49
2023/12/11 00:29:09;;;;;;;0.30;0.30;;;;;;;8.15;100.00;99827.25;5114654;28;20038;-49
2023/12/11 00:31:35;;;;;;;0.30;0.30;;;;;;;8.10;100.00;99816.88;5114759;28;20034;-48
2023/12/11 00:34:00;;;;;;;0.30;0.30;;;;;;;8.14;100.00;99818.66;5114077;28;20020;-51
2023/12/11 00:36:25;;;;;;;0.30;0.30;;;;;;;8.15;100.00;99820.41;5113951;28;20539;-48
2023/12/11 00:38:51;;;;;;;0.20;0.20;;;;;;;8.19;100.00;99818.78;5114636;28;20019;-46
2023/12/11 00:41:16;;;;;;;0.20;0.20;;;;;;;8.21;100.00;99815.41;5113436;28;20020;-51
2023/12/11 00:43:42;;;;;;;0.30;0.30;;;;;;;8.26;100.00;99809.50;5114108;28;20049;-50
2023/12/11 00:46:11;;;;;;;0.30;0.30;;;;;;;8.26;100.00;99812.94;5114192;28;20100;-49
2023/12/11 00:48:37;;;;;;;0.30;0.30;;;;;;;8.23;100.00;99815.44;5113678;28;20047;-46
2023/12/11 00:51:02;;;;;;;0.30;0.30;;;;;;;8.24;100.00;99810.34;5114061;28;20118;-50
2023/12/11 00:53:27;;;;;;;0.30;0.30;;;;;;;8.20;100.00;99808.53;5095678;28;20130;-47
2023/12/11 00:55:53;;;;;;;0.30;0.30;;;;;;;8.23;100.00;99803.47;5113499;28;20055;-50
2023/12/11 00:58:19;;;;;;;0.30;0.30;;;;;;;8.25;100.00;99811.22;5113549;28;20038;-50
2023/12/11 01:00:44;;;;;;;0.30;0.30;;;;;;;8.30;100.00;99803.59;5113706;28;20015;-49
2023/12/11 01:03:09;;;;;;;0.30;0.30;;;;;;;8.30;100.00;99801.91;5113797;28;20020;-46
2023/12/11 01:05:34;;;;;;;0.30;0.30;;;;;;;8.31;100.00;99805.34;5113666;28;20027;-47
2023/12/11 01:08:00;;;;;;;0.30;0.30;;;;;;;8.28;100.00;99810.41;5113409;28;20098;-49
2023/12/11 01:10:25;;;;;;;0.38;0.38;;;;;;;8.28;100.00;99808.72;5113449;28;20031;-48
2023/12/11 01:12:50;;;;;;;0.30;0.30;;;;;;;8.35;100.00;99799.44;5113541;28;20038;-48
2023/12/11 01:15:16;;;;;;;0.30;0.30;;;;;;;8.34;100.00;99795.13;5112805;28;20467;-49
2023/12/11 01:17:41;;;;;;;0.30;0.30;;;;;;;8.38;100.00;99792.66;5113485;28;20454;-46
2023/12/11 01:20:08;;;;;;;0.30;0.30;;;;;;;8.46;100.00;99787.72;5113663;28;20463;-48
2023/12/11 01:22:34;;;;;;;0.20;0.20;;;;;;;8.42;100.00;99793.63;5112751;28;20023;-47
2023/12/11 01:25:02;;;;;;;0.30;0.30;;;;;;;8.44;100.00;99789.34;5113439;28;20513;-48
2023/12/11 01:27:27;;;;;;;0.30;0.30;;;;;;;8.52;100.00;99777.59;5113505;28;20023;-50
2023/12/11 01:29:53;;;;;;;0.30;0.30;;;;;;;8.60;100.00;99784.56;5113230;28;20028;-46
2023/12/11 01:32:18;;;;;;;0.30;0.30;;;;;;;8.63;100.00;99782.09;5113144;28;20425;-51
2023/12/11 01:34:43;;;;;;;0.30;0.30;;;;;;;8.67;100.00;99773.59;5113652;28;20107;-50
2023/12/11 01:37:09;;;;;;;0.30;0.30;;;;;;;8.65;100.00;99772.69;5112851;28;20062;-47
2023/12/11 01:39:34;;;;;;;0.30;0.30;;;;;;;8.66;100.00;99767.59;5113085;28;20061;-46
2023/12/11 01:41:59;;;;;;;0.22;0.22;;;;;;;8.69;100.00;99777.94;5113323;28;20032;-50
2023/12/11 01:44:25;;;;;;;0.30;0.30;;;;;;;8.65;100.00;99775.25;5112755;28;20036;-50
2023/12/11 01:46:50;;;;;;;0.30;0.30;;;;;;;8.73;100.00;99768.59;5112825;28;20048;-48
2023/12/11 01:49:17;;;;;;;0.30;0.30;;;;;;;8.73;100.00;99774.59;5112872;28;20380;-47
2023/12/11 01:51:43;;;;;;;0.30;0.30;;;;;;;8.78;100.00;99763.53;5112859;28;20035;-51
2023/12/11 01:54:08;;;;;;;0.30;0.30;;;;;;;8.85;100.00;99757.69;5113027;28;20073;-48
2023/12/11 01:56:35;;;;;;;0.30;0.30;;;;;;;8.86;100.00;99755.13;5113099;28;20081;-49
2023/12/11 01:59:01;;;;;;;0.25;0.25;;;;;;;8.90;100.00;99749.22;5112673;28;20483;-50
2023/12/11 02:01:26;;;;;;;0.28;0.28;;;;;;;8.95;100.00;99745.84;5112649;28;20070;-51
2023/12/11 02:03:52;;;;;;;0.30;0.30;;;;;;;8.94;100.00;99742.44;5113266;28;20047;-49
2023/12/11 02:06:17;;;;;;;0.30;0.30;;;;;;;8.97;100.00;99739.06;5112275;28;20112;-50
2023/12/11 02:08:45;;;;;;;0.30;0.30;;;;;;;9.01;100.00;99738.25;5112831;28;20056;-49
2023/12/11 02:11:11;;;;;;;;;;;;;;;9.08;100.00;99727.25;5112987;28;20019;-48
2023/12/11 02:13:38;;;;;;;0.30;0.30;;;;;;;9.05;100.00;99730.66;5113076;28;19919;-49
2023/12/11 02:16:04;;;;;;;;;;;;;;;9.10;100.00;99730.69;5113263;28;20062;-49
2023/12/11 02:18:29;;;;;;;0.22;0.22;;;;;;;9.04;100.00;99717.78;5112713;28;19943;-48
2023/12/11 02:20:55;;;;;;;0.30;0.30;;;;;;;9.08;100.00;99722.13;5112790;28;20487;-46
2023/12/11 02:23:25;;;;;;;0.30;0.30;;;;;;;9.11;100.00;99716.16;5112682;28;20024;-47
2023/12/11 02:26:02;;;;;;;0.30;0.30;;;;;;;9.11;100.00;99714.44;5112584;28;20055;-51
2023/12/11 02:28:27;;;;;;;0.25;0.25;;;;;;;9.11;100.00;99709.31;5115649;28;20176;-47
2023/12/11 02:30:52;;;;;;;0.25;0.25;;;;;;;9.14;100.00;99703.34;5116994;28;20487;-46
2023/12/11 02:33:18;;;;;;;0.30;0.30;;;;;;;9.16;100.00;99710.25;5116086;28;20024;-46
2023/12/11 02:35:46;;;;;;;0.22;0.22;;;;;;;9.18;100.00;99707.69;5116648;28;20026;-47
2023/12/11 02:38:11;;;;;;;0.22;0.22;;;;;;;9.18;100.00;99705.13;5116735;28;20363;-46
2023/12/11 02:40:37;;;;;;;0.30;0.30;;;;;;;9.19;100.00;99701.72;5116230;28;20471;-45
2023/12/11 02:43:02;;;;;;;0.28;0.28;;;;;;;9.17;100.00;99699.13;5116704;28;20028;-47
2023/12/11 02:45:28;;;;;;;0.30;0.30;;;;;;;9.13;100.00;99692.22;5116580;28;20057;-47
2023/12/11 02:47:59;;;;;;;0.20;0.20;;;;;;;9.14;100.00;99693.97;5115972;28;20097;-45
2023/12/11 02:50:24;;;;;;;0.20;0.20;;;;;;;9.14;100.00;99693.97;5116045;28;20188;-48
2023/12/11 02:52:50;;;;;;;0.25;0.25;;;;;;;9.11;100.00;99681.03;5116776;28;20031;-48
2023/12/11 02:55:15;;;;;;;0.30;0.30;;;;;;;9.10;100.00;99674.16;5115914;28;20378;-45
2023/12/11 02:57:40;;;;;;;0.20;0.20;;;;;;;9.08;100.00;99688.72;5116515;28;20332;-50
2023/12/11 03:00:06;;;;;;;0.30;0.30;;;;;;;9.03;100.00;99680.06;5116507;28;20062;-46
2023/12/11 03:02:32;;;;;;;0.30;0.30;;;;;;;8.97;100.00;99664.53;5115725;28;20055;-46
2023/12/11 03:04:58;;;;;;;0.30;0.30;;;;;;;8.87;100.00;99654.09;5116013;28;20019;-49
2023/12/11 03:07:25;;;;;;;0.30;0.30;;;;;;;8.74;100.00;99667.56;5115330;28;20470;-46
2023/12/11 03:09:50;;;;;;;0.20;0.20;;;;;;;8.67;100.00;99650.31;5116198;28;20027;-50
2023/12/11 03:12:16;;;;;;;0.30;0.30;;;;;;;8.57;100.00;99655.28;5115601;28;20024;-48
2023/12/11 03:14:41;;;;;;;0.30;0.30;;;;;;;8.54;100.00;99655.22;5115913;28;20019;-49
2023/12/11 03:17:06;;;;;;;0.20;0.20;;;;;;;8.53;100.00;99668.03;5115933;28;20031;-50
2023/12/11 03:19:33;;;;;;;0.30;0.30;;;;;;;8.49;100.00;99655.97;5115715;28;20478;-49
2023/12/11 03:21:58;;;;;;;0.30;0.30;;;;;;;8.46;100.00;99640.53;5115607;28;20053;-49
2023/12/11 03:24:23;;;;;;;0.30;0.30;;;;;;;8.44;100.00;99647.28;5115578;28;20518;-49
2023/12/11 03:26:49;;;;;;;0.30;0.30;;;;;;;8.40;100.00;99636.97;5115982;28;20555;-48
2023/12/11 03:29:15;;;;;;;0.30;0.30;;;;;;;8.37;100.00;99630.91;5115044;28;20483;-47
2023/12/11 03:31:40;;;;;;;0.30;0.30;;;;;;;8.40;100.00;99626.69;5102080;28;20023;-49
2023/12/11 03:34:05;;;;;;;0.30;0.30;;;;;;;8.42;100.00;99624.16;5095307;28;20031;-46
2023/12/11 03:36:31;;;;;;;0.30;0.30;;;;;;;8.41;100.00;99622.41;5094670;28;20024;-49
2023/12/11 03:38:56;;;;;;;0.20;0.20;;;;;;;8.40;100.00;99626.69;5094312;28;20057;-48
2023/12/11 03:41:21;;;;;;;0.30;0.30;;;;;;;8.36;100.00;99618.91;5094897;28;20020;-48
2023/12/11 03:43:47;;;;;;;0.30;0.30;;;;;;;8.40;100.00;99620.69;5094901;28;20112;-49
2023/12/11 03:46:12;;;;;;;0.30;0.30;;;;;;;8.39;100.00;99624.97;5094527;28;20169;-49
2023/12/11 03:48:37;;;;;;;0.30;0.30;;;;;;;8.45;100.00;99608.78;5094897;28;20040;-48
2023/12/11 03:51:03;;;;;;;0.30;0.30;;;;;;;8.59;100.00;99615.94;5094406;28;20032;-49
2023/12/11 03:53:28;;;;;;;0.30;0.30;;;;;;;8.63;100.00;99626.25;5094684;28;20028;-47
2023/12/11 03:55:54;;;;;;;0.20;0.20;;;;;;;8.66;100.00;99635.72;5095092;28;20020;-47
2023/12/11 03:58:19;;;;;;;0.30;0.30;;;;;;;8.66;100.00;99622.88;5094040;28;20026;-50
2023/12/11 04:00:44;;;;;;;0.30;0.30;;;;;;;8.62;100.00;99623.69;5094636;28;20036;-50
2023/12/11 04:03:10;;;;;;;0.30;0.30;;;;;;;8.55;100.00;99623.56;5094617;28;20457;-47
2023/12/11 04:05:35;;;;;;;0.30;0.30;;;;;;;8.56;100.00;99617.59;5094138;28;20024;-49
2023/12/11 04:08:00;;;;;;;0.30;0.30;;;;;;;8.59;100.00;99616.78;5094469;28;20035;-50
2023/12/11 04:10:26;;;;;;;0.30;0.30;;;;;;;8.54;100.00;99619.25;5094554;28;20020;-49
2023/12/11 04:12:51;;;;;;;0.20;0.20;;;;;;;8.57;100.00;99633.84;5094064;28;20349;-50
2023/12/11 04:15:17;;;;;;;0.30;0.30;;;;;;;8.57;100.00;99634.72;5094195;28;20099;-48
2023/12/11 04:17:43;;;;;;;0.30;0.30;;;;;;;8.56;100.00;99639.84;5094225;28;20386;-49
2023/12/11 04:20:09;;;;;;;0.30;0.30;;;;;;;8.55;100.00;99630.41;5094095;28;20020;-49
2023/12/11 04:22:34;;;;;;;0.30;0.30;;;;;;;8.52;100.00;99638.94;5094599;28;20030;-50
2023/12/11 04:25:00;;;;;;;0.20;0.20;;;;;;;8.55;100.00;99604.72;5094051;28;20786;-45
2023/12/11 04:27:25;;;;;;;0.30;0.30;;;;;;;8.59;100.00;99615.94;5093714;28;20131;-49
2023/12/11 04:29:50;;;;;;;0.20;0.20;;;;;;;8.62;100.00;99616.81;5094314;28;20020;-51
2023/12/11 04:32:16;;;;;;;0.30;0.30;;;;;;;8.64;100.00;99620.28;5093493;28;20016;-49
2023/12/11 04:34:41;;;;;;;0.30;0.30;;;;;;;8.64;100.00;99619.44;5093974;28;20028;-48
2023/12/11 04:37:06;;;;;;;0.30;0.30;;;;;;;8.61;100.00;99611.66;5094133;28;20028;-50
2023/12/11 04:39:32;;;;;;;0.30;0.30;;;;;;;8.56;100.00;99612.47;5093421;28;20031;-51
2023/12/11 04:41:57;;;;;;;0.30;0.30;;;;;;;8.50;100.00;99601.22;5093889;28;20032;-45
2023/12/11 04:44:22;;;;;;;0.30;0.30;;;;;;;8.46;100.00;99599.44;5093715;28;20024;-47
2023/12/11 04:46:48;;;;;;;0.30;0.30;;;;;;;8.40;100.00;99600.13;5093261;28;20048;-47
2023/12/11 04:49:13;;;;;;;0.30;0.30;;;;;;;8.37;100.00;99589.81;5093352;28;20031;-49
2023/12/11 04:51:38;;;;;;;0.30;0.30;;;;;;;8.35;100.00;99597.50;5093059;28;20028;-47
2023/12/11 04:54:04;;;;;;;0.30;0.30;;;;;;;8.31;100.00;99595.69;5093324;28;20111;-50
2023/12/11 04:56:29;;;;;;;0.30;0.30;;;;;;;8.32;100.00;99588.88;5093307;28;20059;-49
2023/12/11 04:58:55;;;;;;;0.22;0.22;;;;;;;8.28;100.00;99599.94;5093864;28;20077;-48
2023/12/11 05:01:20;;;;;;;0.30;0.30;;;;;;;8.27;100.00;99605.91;5092914;28;20487;-46
2023/12/11 05:03:45;;;;;;;0.30;0.30;;;;;;;8.24;100.00;99599.84;5093394;28;20024;-50
2023/12/11 05:06:11;;;;;;;0.30;0.30;;;;;;;8.26;100.00;99593.88;5093481;28;20072;-49
2023/12/11 05:08:36;;;;;;;0.30;0.30;;;;;;;8.23;100.00;99592.97;5093011;28;20043;-48
2023/12/11 05:11:02;;;;;;;0.30;0.30;;;;;;;8.22;100.00;99593.84;5093305;28;20111;-48
2023/12/11 05:13:27;;;;;;;0.30;0.30;;;;;;;8.23;100.00;99613.53;5093142;28;20058;-49
2023/12/11 05:15:52;;;;;;;0.30;0.30;;;;;;;8.21;100.00;99615.22;5092930;28;20063;-50
2023/12/11 05:18:18;;;;;;;0.30;0.30;;;;;;;8.20;100.00;99610.91;5092765;28;20460;-51
2023/12/11 05:20:43;;;;;;;0.30;0.30;;;;;;;8.19;100.00;99606.59;5093595;28;20060;-50
2023/12/11 05:23:08;;;;;;;0.30;0.30;;;;;;;8.17;100.00;99602.28;5092820;28;20024;-48
2023/12/11 05:25:34;;;;;;;0.30;0.30;;;;;;;8.17;100.00;99613.44;5092658;28;20020;-50
2023/12/11 05:27:59;;;;;;;0.28;0.28;;;;;;;8.19;100.00;99614.31;5093030;28;20028;-47
2023/12/11 05:30:24;;;;;;;0.30;0.30;;;;;;;8.19;100.00;99605.75;5092745;28;20396;-48
2023/12/11 05:32:50;;;;;;;0.30;0.30;;;;;;;8.18;100.00;99610.00;5093041;28;20386;-50
2023/12/11 05:35:15;;;;;;;0.30;0.30;;;;;;;8.16;100.00;99609.13;5092517;28;20470;-49
2023/12/11 05:37:41;;;;;;;0.30;0.30;;;;;;;8.17;100.00;99612.53;5093022;28;20096;-47
2023/12/11 05:40:07;;;;;;;0.20;0.20;;;;;;;8.19;100.00;99606.59;5093313;28;20073;-48
2023/12/11 05:42:32;;;;;;;0.20;0.20;;;;;;;8.21;100.00;99607.50;5091735;28;20051;-50
2023/12/11 05:44:58;;;;;;;0.30;0.30;;;;;;;8.21;100.00;99604.94;5092851;28;20024;-48
2023/12/11 05:47:23;;;;;;;0.30;0.30;;;;;;;8.26;100.00;99599.03;5092728;28;20079;-48
2023/12/11 05:49:48;;;;;;;0.30;0.30;;;;;;;8.27;100.00;99604.19;5092623;28;20028;-46
2023/12/11 05:52:14;;;;;;;0.20;0.20;;;;;;;8.29;100.00;99599.06;5092592;28;20099;-46
2023/12/11 05:54:39;;;;;;;0.30;0.30;;;;;;;8.29;100.00;99601.63;5093064;28;20086;-46
2023/12/11 05:57:05;;;;;;;0.30;0.30;;;;;;;8.28;100.00;99597.38;5092253;28;20042;-47
2023/12/11 05:59:30;;;;;;;0.20;0.20;;;;;;;8.30;100.00;99604.25;5092312;28;20026;-47
2023/12/11 06:01:55;;;;;;;0.30;0.30;;;;;;;8.30;100.00;99606.81;5093329;28;20115;-49
2023/12/11 06:04:21;;;;;;;0.30;0.30;;;;;;;8.33;100.00;99593.19;5096244;28;20051;-47
2023/12/11 06:06:47;;;;;;;0.30;0.30;;;;;;;8.35;100.00;99599.19;5096609;28;20118;-50
2023/12/11 06:09:13;;;;;;;0.30;0.30;;;;;;;8.34;100.00;99600.91;5096844;28;20046;-49
2023/12/11 06:11:39;;;;;;;0.30;0.30;;;;;;;8.34;100.00;99592.31;5096602;28;20027;-46
2023/12/11 06:14:04;;;;;;;0.30;0.30;;;;;;;8.34;100.00;99600.03;5096825;28;20016;-49
2023/12/11 06:16:29;;;;;;;0.30;0.30;;;;;;;8.32;100.00;99606.84;5096586;28;20035;-49
2023/12/11 06:18:55;;;;;;;0.30;0.30;;;;;;;8.27;100.00;99611.03;5096331;28;20020;-50
2023/12/11 06:21:21;;;;;;;0.30;0.30;;;;;;;8.26;100.00;99606.72;5096230;28;20032;-48
2023/12/11 06:23:47;;;;;;;0.30;0.30;;;;;;;8.21;100.00;99610.06;5096940;28;20020;-49
2023/12/11 06:26:31;;;;;;;0.30;0.30;;;;;;;8.21;100.00;99592.09;5095861;28;20024;-48
2023/12/11 06:29:00;;;;;;;0.30;0.30;;;;;;;8.17;100.00;99592.91;5096711;28;20056;-46
2023/12/11 06:31:30;;;;;;;0.30;0.30;;;;;;;8.16;100.00;99596.28;5095677;28;20421;-49
2023/12/11 06:33:56;;;;;;;0.30;0.30;;;;;;;8.14;100.00;99582.53;5096409;28;20024;-49
2023/12/11 06:36:22;;;;;;;0.30;0.30;;;;;;;8.10;100.00;99591.03;5096218;28;20059;-49
2023/12/11 06:38:50;;;;;;;0.30;0.30;;;;;;;8.11;100.00;99597.91;5096100;28;20017;-48
2023/12/11 06:41:17;;;;;;;0.30;0.30;;;;;;;8.14;100.00;99597.09;5095853;28;20120;-49
2023/12/11 06:43:43;;;;;;;0.30;0.30;;;;;;;8.14;100.00;99595.38;5096483;28;20020;-49
2023/12/11 06:46:08;;;;;;;0.25;0.25;;;;;;;8.15;100.00;99599.69;5095763;28;20032;-47
2023/12/11 06:48:33;;;;;;;0.30;0.30;;;;;;;8.14;100.00;99592.81;5095493;28;20388;-49
2023/12/11 06:50:59;;;;;;;0.30;0.30;;;;;;;8.15;100.00;99615.09;5096487;28;20028;-49
2023/12/11 06:53:24;;;;;;;0.30;0.30;;;;;;;8.17;100.00;99608.28;5095280;28;20106;-48
2023/12/11 06:55:50;;;;;;;0.20;0.20;;;;;;;8.19;100.00;99605.75;5095813;28;20043;-47
2023/12/11 06:58:15;;;;;;;0.22;0.22;;;;;;;8.21;100.00;99614.31;5095745;28;20044;-46
2023/12/11 07:00:40;;;;;;;0.28;0.28;;;;;;;8.23;100.00;99615.22;5095732;28;20502;-46
2023/12/11 07:03:06;;;;;;;0.30;0.30;;;;;;;8.23;100.00;99604.97;5095944;28;20376;-48
2023/12/11 07:05:32;;;;;;;0.30;0.30;;;;;;;8.26;100.00;99625.53;5095771;28;20369;-47
2023/12/11 07:07:58;;;;;;;0.30;0.30;;;;;;;8.26;100.00;99617.00;5095410;28;20024;-51
2023/12/11 07:10:23;;;;;;;0.30;0.30;;;;;;;8.28;100.00;99621.31;5095440;28;20039;-47
2023/12/11 07:12:49;;;;;;;0.30;0.30;;;;;;;8.27;100.00;99629.00;5095766;28;20099;-49
2023/12/11 07:15:15;;;;;;;0.30;0.30;;;;;;;8.23;100.00;99638.34;5094010;28;20099;-48
2023/12/11 07:17:40;;;;;;;0.30;0.30;;;;;;;8.20;100.00;99644.28;5095375;28;20028;-46
2023/12/11 07:20:06;;;;;;;0.30;0.30;;;;;;;8.18;100.00;99645.94;5095690;28;20023;-48
2023/12/11 07:22:34;;;;;;;0.30;0.30;;;;;;;8.12;100.00;99655.22;5094639;28;20353;-49
2023/12/11 07:24:59;;;;;;;;;;;;;;;8.17;100.00;99658.72;5096247;28;20095;-48
2023/12/11 07:27:25;;;;;;;0.30;0.30;;;;;;;8.06;100.00;99651.69;5095025;28;20065;-49
2023/12/11 07:29:50;;;;;;;0.30;0.30;;;;;;;8.03;100.00;99649.06;5094938;28;20028;-48
2023/12/11 07:32:15;;;;;;;0.30;0.30;;;;;;;8.03;100.00;99656.78;5095282;28;20056;-47
2023/12/11 07:34:42;;;;;;;0.30;0.30;;;;;;;8.04;100.00;99665.31;5094743;28;20020;-49
2023/12/11 07:37:08;;;;;;;0.20;0.20;;;;;;;8.05;100.00;99662.78;5095212;28;20031;-47
2023/12/11 07:39:33;;;;;;;0.30;0.30;;;;;;;8.05;100.00;99669.63;5094878;28;20379;-49
2023/12/11 07:41:59;;;;;;;0.30;0.30;;;;;;;8.07;100.00;99667.97;5094502;28;20024;-49
2023/12/11 07:44:24;;;;;;;0.30;0.30;;;;;;;8.07;100.00;99675.66;5094830;28;20027;-47
2023/12/11 07:46:49;;;;;;;0.30;0.30;;;;;;;8.08;100.00;99685.06;5094995;28;20369;-50
2023/12/11 07:49:15;;;;;;;0.30;0.30;;;;;;;8.10;100.00;99678.28;5094348;28;20412;-48
2023/12/11 07:51:40;;;;;;;0.20;0.20;;;;;;;8.11;100.00;99680.03;5094907;28;20028;-46
2023/12/11 07:54:06;;;;;;;0.28;0.28;;;;;;;8.09;100.00;99676.53;5094863;28;20031;-48
2023/12/11 07:56:31;;;;;;;0.30;0.30;;;;;;;8.10;100.00;99693.69;5093908;28;20022;-49
2023/12/11 07:58:56;;;;;;;0.30;0.30;;;;;;;8.11;100.00;99690.28;5094904;28;20054;-49
2023/12/11 08:01:22;;;;;;;0.28;0.28;;;;;;;8.09;100.00;99681.69;5094782;28;20028;-46
2023/12/11 08:03:47;;;;;;;0.30;0.30;;;;;;;8.11;100.00;99700.56;5094811;28;20077;-48
2023/12/11 08:06:13;;;;;;;0.30;0.30;;;;;;;8.14;100.00;99713.44;5094222;28;20024;-49
2023/12/11 08:08:44;;;;;;;0.30;0.30;;;;;;;8.16;100.00;99706.66;5094615;28;20463;-44
2023/12/11 08:11:21;;;;;;;0.30;0.30;;;;;;;8.20;100.00;99718.69;5093723;28;20020;-47
2023/12/11 08:13:48;;;;;;;0.30;0.30;;;;;;;8.18;100.00;99728.06;5094320;28;20035;-48
2023/12/11 08:16:14;;;;;;;0.30;0.30;;;;;;;8.18;100.00;99717.78;5094422;28;20277;-46
2023/12/11 08:18:44;;;;;;;0.30;0.30;;;;;;;8.21;100.00;99723.00;5093676;28;20477;-50
2023/12/11 08:21:10;;;;;;;0.28;0.28;;;;;;;8.22;100.00;99750.41;5094152;28;20487;-47
2023/12/11 08:23:38;;;;;;;0.30;0.30;;;;;;;8.22;100.00;99747.84;5094188;28;20031;-49
2023/12/11 08:26:03;;;;;;;0.30;0.30;;;;;;;8.21;100.00;99753.81;5093455;28;20024;-45
2023/12/11 08:28:29;;;;;;;0.30;0.30;;;;;;;8.20;100.00;99762.34;5094021;28;20035;-50
2023/12/11 08:30:54;;;;;;;0.30;0.30;;;;;;;8.17;100.00;99764.84;5093818;28;20069;-45
2023/12/11 08:33:20;;;;;;;0.35;0.35;;;;;;;8.17;100.00;99775.13;5093638;28;20024;-49
2023/12/11 08:35:45;;;;;;;0.30;0.30;;;;;;;8.18;100.00;99786.25;5094191;28;20039;-49
2023/12/11 08:38:10;;;;;;;0.30;0.30;;;;;;;8.16;100.00;99783.63;5093126;28;20193;-45
2023/12/11 08:40:36;;;;;;;0.30;0.30;;;;;;;8.16;100.00;99795.59;5093965;28;20020;-48
2023/12/11 08:43:01;;;;;;;0.30;0.30;;;;;;;8.12;100.00;99804.06;5094068;28;20028;-48
2023/12/11 08:45:26;;;;;;;0.30;0.30;;;;;;;8.08;100.00;99800.56;5093219;28;20024;-47
2023/12/11 08:47:52;;;;;;;0.30;0.30;;;;;;;8.07;100.00;99809.09;5093527;28;20079;-45
2023/12/11 08:50:17;;;;;;;0.40;0.40;;;;;;;8.08;100.00;99814.25;5093495;28;20051;-47
2023/12/11 08:52:43;;;;;;;0.30;0.30;;;;;;;8.08;100.00;99814.25;5093267;28;20102;-50
2023/12/11 08:55:09;;;;;;;0.30;0.30;;;;;;;8.12;100.00;99814.31;5093739;28;20371;-50
2023/12/11 08:57:35;;;;;;;0.30;0.30;;;;;;;8.11;100.00;99808.34;5093606;28;20564;-50
2023/12/11 09:00:03;;;;;;;0.20;0.20;;;;;;;8.17;100.00;99823.88;5093224;28;20103;-49
2023/12/11 09:02:28;;;;;;;0.30;0.30;;;;;;;8.21;100.00;99829.94;5093161;28;20047;-47
2023/12/11 09:04:53;;;;;;;0.22;0.22;;;;;;;8.21;100.00;99832.50;5093552;28;20379;-45
2023/12/11 09:07:19;;;;;;;0.30;0.30;;;;;;;8.23;100.00;99849.66;5092673;28;20035;-46
2023/12/11 09:09:44;;;;;;;0.22;0.22;;;;;;;8.27;100.00;99844.63;5093207;28;20048;-44
2023/12/11 09:12:09;;;;;;;0.30;0.30;;;;;;;8.29;100.00;99858.34;5093456;28;20023;-49
2023/12/11 09:14:35;;;;;;;0.30;0.30;;;;;;;8.33;100.00;99867.88;5092967;28;20494;-47
2023/12/11 09:17:00;;;;;;;0.30;0.30;;;;;;;8.38;100.00;99868.84;5093090;28;20063;-49
2023/12/11 09:19:27;;;;;;;0.28;0.28;;;;;;;8.45;100.00;99886.09;5093026;28;20027;-49
2023/12/11 09:21:52;;;;;;;0.30;0.30;;;;;;;8.49;100.00;99887.94;5092554;28;20427;-50
2023/12/11 09:24:18;;;;;;;0.30;0.30;;;;;;;8.52;100.00;99893.16;5092899;28;20099;-48
2023/12/11 09:26:43;;;;;;;0.20;0.20;;;;;;;8.57;100.00;99900.94;5093247;28;20028;-50
2023/12/11 09:29:09;;;;;;;0.30;0.30;;;;;;;8.60;100.00;99900.16;5092533;28;20035;-51
2023/12/11 09:31:34;;;;;;;0.30;0.30;;;;;;;8.61;100.00;99899.31;5093055;28;20028;-50
2023/12/11 09:34:00;;;;;;;0.30;0.30;;;;;;;8.64;100.00;99918.25;5093169;28;20024;-49
2023/12/11 09:36:25;;;;;;;0.20;0.20;;;;;;;8.68;100.00;99925.19;5091528;28;20456;-50
2023/12/11 09:38:50;;;;;;;0.20;0.20;;;;;;;8.73;100.00;99927.88;5093043;28;20043;-46
2023/12/11 09:41:16;;;;;;;0.20;0.20;;;;;;;8.74;100.00;99929.59;5092355;28;20418;-50
2023/12/11 09:43:42;;;;;;;0.30;0.30;;;;;;;8.77;100.00;99933.94;5092836;28;20422;-49
2023/12/11 09:46:11;;;;;;;0.30;0.30;;;;;;;8.80;100.00;99940.00;5092936;28;20024;-50
2023/12/11 09:48:36;;;;;;;0.22;0.22;;;;;;;8.83;100.00;99942.66;5092170;28;20552;-50
2023/12/11 09:51:02;;;;;;;0.30;0.30;;;;;;;8.85;100.00;99938.41;5092536;28;20024;-49
2023/12/11 09:53:30;;;;;;;0.30;0.30;;;;;;;8.87;100.00;99962.44;5092742;28;20024;-45
2023/12/11 09:55:56;;;;;;;0.20;0.20;;;;;;;8.89;100.00;99960.75;5092050;28;20024;-51
2023/12/11 09:58:22;;;;;;;0.20;0.20;;;;;;;8.89;100.00;99965.03;5092206;28;20463;-50
2023/12/11 10:00:48;;;;;;;0.25;0.25;;;;;;;8.89;100.00;99965.88;5092864;28;20072;-50
2023/12/11 10:03:15;;;;;;;0.20;0.20;;;;;;;8.85;100.00;99974.38;5091918;28;20047;-49
2023/12/11 10:05:41;;;;;;;0.30;0.30;;;;;;;8.82;100.00;99973.41;5092259;28;20387;-49
2023/12/11 10:08:06;;;;;;;0.22;0.22;;;;;;;8.77;100.00;99980.19;5092926;28;20482;-47
2023/12/11 10:10:33;;;;;;;0.30;0.30;;;;;;;8.75;100.00;99980.13;5091927;28;20101;-50
2023/12/11 10:13:00;;;;;;;0.20;0.20;;;;;;;8.74;100.00;99973.28;5092477;28;20036;-47
2023/12/11 10:15:31;;;;;;;0.20;0.20;;;;;;;8.73;100.00;99985.22;5092341;28;20059;-45
2023/12/11 10:18:11;;;;;;;0.30;0.30;;;;;;;8.74;100.00;99981.00;5091855;28;20112;-51
2023/12/11 10:20:38;;;;;;;0.28;0.28;;;;;;;8.69;100.00;99998.00;5092549;28;20029;-51
2023/12/11 10:23:18;;;;;;;0.22;0.22;;;;;;;8.69;100.00;100015.97;5092748;28;20066;-46
2023/12/11 10:25:45;;;;;;;0.20;0.20;;;;;;;8.61;100.00;100012.34;5091826;28;20035;-50
2023/12/11 10:28:13;;;;;;;0.20;0.20;;;;;;;8.49;100.00;100021.47;5092421;28;20032;-51
2023/12/11 10:30:47;;;;;;;0.20;0.20;;;;;;;8.37;100.00;100027.16;5091994;28;20024;-50
2023/12/11 10:33:12;;;;;;;0.30;0.30;;;;;;;8.21;100.00;100027.56;5091852;28;20460;-46
2023/12/11 10:35:38;;;;;;;0.30;0.30;;;;;;;8.02;100.00;100018.53;5092625;28;20056;-49
2023/12/11 10:38:03;;;;;;;0.30;0.30;;;;;;;7.80;100.00;100048.75;5091756;28;20028;-46
2023/12/11 10:40:37;;;;;;;0.30;0.30;;;;;;;7.63;100.00;100032.00;5091894;28;20259;-50
2023/12/11 10:43:03;;;;;;;0.30;0.30;;;;;;;7.51;100.00;100047.91;5092284;28;20031;-49
2023/12/11 10:45:29;;;;;;;0.30;0.30;;;;;;;7.43;100.00;100052.81;5091449;28;20020;-50
2023/12/11 10:47:55;;;;;;;0.30;0.30;;;;;;;7.31;100.00;100062.69;5092342;28;20101;-49
2023/12/11 10:50:21;;;;;;;0.30;0.30;;;;;;;7.21;100.00;100057.28;5096058;28;20036;-48
2023/12/11 10:52:47;;;;;;;0.30;0.30;;;;;;;7.16;100.00;100063.09;5095712;28;20035;-49
2023/12/11 10:55:12;;;;;;;0.30;0.30;;;;;;;7.09;100.00;100074.88;5095530;28;20028;-48
2023/12/11 10:57:38;;;;;;;0.30;0.30;;;;;;;7.06;100.00;100073.06;5095936;28;20353;-49
2023/12/11 11:00:04;;;;;;;0.30;0.30;;;;;;;7.05;100.00;100070.44;5095191;28;20040;-46
2023/12/11 11:02:31;;;;;;;0.30;0.30;;;;;;;7.05;100.00;100090.94;5095616;28;20471;-49
2023/12/11 11:04:57;;;;;;;0.25;0.25;;;;;;;7.07;100.00;100085.03;5096003;28;20106;-50
2023/12/11 11:07:30;;;;;;;0.30;0.30;;;;;;;7.06;100.00;100097.81;5094887;28;20040;-47
2023/12/11 11:10:01;;;;;;;0.30;0.30;;;;;;;7.07;100.00;100105.53;5095943;28;20073;-46
2023/12/11 11:12:51;;;;;;;0.30;0.30;;;;;;;7.12;100.00;100108.25;5095605;28;20039;-48
2023/12/11 11:15:24;;;;;;;0.30;0.30;;;;;;;7.13;100.00;100111.69;5095269;28;20108;-50
2023/12/11 11:17:59;;;;;;;0.30;0.30;;;;;;;7.13;100.00;100117.69;5095763;28;20038;-49
2023/12/11 11:20:32;;;;;;;0.30;0.30;;;;;;;7.18;100.00;100105.91;5094765;28;20372;-46
2023/12/11 11:23:21;;;;;;;0.30;0.30;;;;;;;7.23;100.00;100112.03;5095329;28;20398;-49
2023/12/11 11:25:52;;;;;;;0.30;0.30;;;;;;;7.21;100.00;100126.47;5095560;28;20177;-51
2023/12/11 11:28:46;;;;;;;0.30;0.30;;;;;;;7.24;100.00;100129.16;5094594;28;20024;-44